sensor_id;sensor_type;location;lat;lon;timestamp;P1;durP1;ratioP1;P2;durP2;ratioP2
18336;SDS011;9294;51.106;7.028;2022-10-31T00:02:26;4.60;;;4.30;;
18336;SDS011;9294;51.106;7.028;2022-10-31T00:04:53;4.88;;;4.55;;
18336;SDS011;9294;51.106;7.028;2022-10-31T00:07:20;5.20;;;4.65;;
18336;SDS011;9294;51.106;7.028;2022-10-31T00:09:47;5.13;;;4.70;;
18336;SDS011;9294;51.106;7.028;2022-10-31T00:12:14;5.43;;;5.03;;
18336;SDS011;9294;51.106;7.028;2022-10-31T00:14:42;4.85;;;4.45;;
18336;SDS011;9294;51.106;7.028;2022-10-31T00:17:09;5.35;;;4.95;;
18336;SDS011;9294;51.106;7.028;2022-10-31T00:19:36;4.32;;;4.03;;
18336;SDS011;9294;51.106;7.028;2022-10-31T00:22:03;5.30;;;4.80;;
18336;SDS011;9294;51.106;7.028;2022-10-31T00:24:31;4.70;;;4.40;;
18336;SDS011;9294;51.106;7.028;2022-10-31T00:26:58;5.40;;;5.00;;
18336;SDS011;9294;51.106;7.028;2022-10-31T00:29:25;4.85;;;4.45;;
18336;SDS011;9294;51.106;7.028;2022-10-31T00:31:53;5.10;;;4.68;;
18336;SDS011;9294;51.106;7.028;2022-10-31T00:34:20;5.10;;;4.65;;
18336;SDS011;9294;51.106;7.028;2022-10-31T00:36:47;4.82;;;4.53;;
18336;SDS011;9294;51.106;7.028;2022-10-31T00:39:14;5.28;;;4.72;;
18336;SDS011;9294;51.106;7.028;2022-10-31T00:41:41;4.25;;;3.95;;
18336;SDS011;9294;51.106;7.028;2022-10-31T00:44:08;4.97;;;4.57;;
18336;SDS011;9294;51.106;7.028;2022-10-31T00:46:35;5.15;;;4.70;;
18336;SDS011;9294;51.106;7.028;2022-10-31T00:49:04;5.05;;;4.65;;
18336;SDS011;9294;51.106;7.028;2022-10-31T00:51:31;5.13;;;4.72;;
18336;SDS011;9294;51.106;7.028;2022-10-31T00:53:58;4.50;;;4.20;;
18336;SDS011;9294;51.106;7.028;2022-10-31T00:56:25;5.20;;;4.80;;
18336;SDS011;9294;51.106;7.028;2022-10-31T00:58:52;4.80;;;4.40;;
18336;SDS011;9294;51.106;7.028;2022-10-31T01:01:19;4.45;;;4.15;;
18336;SDS011;9294;51.106;7.028;2022-10-31T01:03:46;4.72;;;4.40;;
18336;SDS011;9294;51.106;7.028;2022-10-31T01:06:14;4.60;;;4.30;;
18336;SDS011;9294;51.106;7.028;2022-10-31T01:08:42;5.38;;;4.82;;
18336;SDS011;9294;51.106;7.028;2022-10-31T01:11:13;4.40;;;4.10;;
18336;SDS011;9294;51.106;7.028;2022-10-31T01:13:41;5.60;;;5.30;;
18336;SDS011;9294;51.106;7.028;2022-10-31T01:16:09;4.60;;;4.30;;
18336;SDS011;9294;51.106;7.028;2022-10-31T01:18:37;4.63;;;4.32;;
18336;SDS011;9294;51.106;7.028;2022-10-31T01:21:05;4.43;;;4.13;;
18336;SDS011;9294;51.106;7.028;2022-10-31T01:23:33;5.15;;;4.75;;
18336;SDS011;9294;51.106;7.028;2022-10-31T01:26:02;5.18;;;4.88;;
18336;SDS011;9294;51.106;7.028;2022-10-31T01:28:29;4.85;;;4.55;;
18336;SDS011;9294;51.106;7.028;2022-10-31T01:31:00;4.95;;;4.65;;
18336;SDS011;9294;51.106;7.028;2022-10-31T01:33:27;4.82;;;4.50;;
18336;SDS011;9294;51.106;7.028;2022-10-31T01:35:54;4.85;;;4.55;;
18336;SDS011;9294;51.106;7.028;2022-10-31T01:38:21;4.38;;;4.07;;
18336;SDS011;9294;51.106;7.028;2022-10-31T01:40:50;4.53;;;4.22;;
18336;SDS011;9294;51.106;7.028;2022-10-31T01:43:17;4.68;;;4.38;;
18336;SDS011;9294;51.106;7.028;2022-10-31T01:45:46;5.38;;;4.90;;
18336;SDS011;9294;51.106;7.028;2022-10-31T01:48:16;4.50;;;4.20;;
18336;SDS011;9294;51.106;7.028;2022-10-31T01:50:46;4.65;;;4.35;;
18336;SDS011;9294;51.106;7.028;2022-10-31T01:53:15;4.95;;;4.65;;
18336;SDS011;9294;51.106;7.028;2022-10-31T01:55:43;4.95;;;4.55;;
18336;SDS011;9294;51.106;7.028;2022-10-31T01:58:13;4.97;;;4.55;;
18336;SDS011;9294;51.106;7.028;2022-10-31T02:00:41;4.63;;;4.32;;
18336;SDS011;9294;51.106;7.028;2022-10-31T02:03:10;4.72;;;4.43;;
18336;SDS011;9294;51.106;7.028;2022-10-31T02:05:37;4.80;;;4.47;;
18336;SDS011;9294;51.106;7.028;2022-10-31T02:08:05;4.60;;;4.30;;
18336;SDS011;9294;51.106;7.028;2022-10-31T02:10:34;4.68;;;4.35;;
18336;SDS011;9294;51.106;7.028;2022-10-31T02:13:03;4.93;;;4.63;;
18336;SDS011;9294;51.106;7.028;2022-10-31T02:15:32;4.63;;;4.25;;
18336;SDS011;9294;51.106;7.028;2022-10-31T02:17:59;5.15;;;4.75;;
18336;SDS011;9294;51.106;7.028;2022-10-31T02:20:27;5.65;;;5.05;;
18336;SDS011;9294;51.106;7.028;2022-10-31T02:23:04;4.45;;;4.15;;
18336;SDS011;9294;51.106;7.028;2022-10-31T02:25:41;4.63;;;4.22;;
18336;SDS011;9294;51.106;7.028;2022-10-31T02:28:25;4.85;;;4.45;;
18336;SDS011;9294;51.106;7.028;2022-10-31T02:31:06;4.63;;;4.22;;
18336;SDS011;9294;51.106;7.028;2022-10-31T02:33:38;5.10;;;4.70;;
18336;SDS011;9294;51.106;7.028;2022-10-31T02:36:10;4.38;;;4.07;;
18336;SDS011;9294;51.106;7.028;2022-10-31T02:38:39;4.53;;;4.22;;
18336;SDS011;9294;51.106;7.028;2022-10-31T02:41:10;4.93;;;4.63;;
18336;SDS011;9294;51.106;7.028;2022-10-31T02:43:43;4.95;;;4.65;;
18336;SDS011;9294;51.106;7.028;2022-10-31T02:46:18;4.70;;;4.38;;
18336;SDS011;9294;51.106;7.028;2022-10-31T02:48:46;4.57;;;4.28;;
18336;SDS011;9294;51.106;7.028;2022-10-31T02:51:14;4.78;;;4.47;;
18336;SDS011;9294;51.106;7.028;2022-10-31T02:53:42;4.70;;;4.40;;
18336;SDS011;9294;51.106;7.028;2022-10-31T02:56:11;4.55;;;4.30;;
18336;SDS011;9294;51.106;7.028;2022-10-31T02:58:39;4.85;;;4.55;;
18336;SDS011;9294;51.106;7.028;2022-10-31T03:01:10;4.30;;;4.00;;
18336;SDS011;9294;51.106;7.028;2022-10-31T03:03:41;4.70;;;4.38;;
18336;SDS011;9294;51.106;7.028;2022-10-31T03:06:16;5.65;;;5.18;;
18336;SDS011;9294;51.106;7.028;2022-10-31T03:08:45;4.53;;;4.25;;
18336;SDS011;9294;51.106;7.028;2022-10-31T03:11:16;4.95;;;4.60;;
18336;SDS011;9294;51.106;7.028;2022-10-31T03:13:45;4.85;;;4.40;;
18336;SDS011;9294;51.106;7.028;2022-10-31T03:16:13;4.55;;;4.25;;
18336;SDS011;9294;51.106;7.028;2022-10-31T03:18:43;5.10;;;4.65;;
18336;SDS011;9294;51.106;7.028;2022-10-31T03:21:12;4.05;;;3.85;;
18336;SDS011;9294;51.106;7.028;2022-10-31T03:23:40;4.97;;;4.65;;
18336;SDS011;9294;51.106;7.028;2022-10-31T03:26:08;4.95;;;4.65;;
18336;SDS011;9294;51.106;7.028;2022-10-31T03:28:37;4.93;;;4.63;;
18336;SDS011;9294;51.106;7.028;2022-10-31T03:31:05;4.43;;;4.13;;
18336;SDS011;9294;51.106;7.028;2022-10-31T03:33:34;4.63;;;4.32;;
18336;SDS011;9294;51.106;7.028;2022-10-31T03:36:04;4.70;;;4.40;;
18336;SDS011;9294;51.106;7.028;2022-10-31T03:38:32;4.40;;;4.10;;
18336;SDS011;9294;51.106;7.028;2022-10-31T03:41:00;4.80;;;4.50;;
18336;SDS011;9294;51.106;7.028;2022-10-31T03:43:30;4.47;;;4.28;;
18336;SDS011;9294;51.106;7.028;2022-10-31T03:45:58;4.60;;;4.25;;
18336;SDS011;9294;51.106;7.028;2022-10-31T03:48:25;5.20;;;4.70;;
18336;SDS011;9294;51.106;7.028;2022-10-31T03:50:56;4.65;;;4.35;;
18336;SDS011;9294;51.106;7.028;2022-10-31T03:53:29;4.70;;;4.40;;
18336;SDS011;9294;51.106;7.028;2022-10-31T03:55:58;4.40;;;4.18;;
18336;SDS011;9294;51.106;7.028;2022-10-31T03:58:27;4.63;;;4.32;;
18336;SDS011;9294;51.106;7.028;2022-10-31T04:00:57;4.47;;;4.18;;
18336;SDS011;9294;51.106;7.028;2022-10-31T04:03:26;5.28;;;4.90;;
18336;SDS011;9294;51.106;7.028;2022-10-31T04:05:55;4.93;;;4.50;;
18336;SDS011;9294;51.106;7.028;2022-10-31T04:08:24;4.22;;;4.03;;
18336;SDS011;9294;51.106;7.028;2022-10-31T04:10:54;4.38;;;4.10;;
18336;SDS011;9294;51.106;7.028;2022-10-31T04:13:24;4.57;;;4.28;;
18336;SDS011;9294;51.106;7.028;2022-10-31T04:15:52;4.32;;;4.13;;
18336;SDS011;9294;51.106;7.028;2022-10-31T04:18:21;4.93;;;4.63;;
18336;SDS011;9294;51.106;7.028;2022-10-31T04:20:49;4.95;;;4.65;;
18336;SDS011;9294;51.106;7.028;2022-10-31T04:23:17;4.43;;;4.13;;
18336;SDS011;9294;51.106;7.028;2022-10-31T04:25:45;4.95;;;4.65;;
18336;SDS011;9294;51.106;7.028;2022-10-31T04:28:13;4.93;;;4.63;;
18336;SDS011;9294;51.106;7.028;2022-10-31T04:30:40;5.57;;;5.15;;
18336;SDS011;9294;51.106;7.028;2022-10-31T04:33:07;4.80;;;4.50;;
18336;SDS011;9294;51.106;7.028;2022-10-31T04:35:34;4.60;;;4.30;;
18336;SDS011;9294;51.106;7.028;2022-10-31T04:38:02;4.63;;;4.35;;
18336;SDS011;9294;51.106;7.028;2022-10-31T04:40:29;4.07;;;3.88;;
18336;SDS011;9294;51.106;7.028;2022-10-31T04:42:56;4.72;;;4.43;;
18336;SDS011;9294;51.106;7.028;2022-10-31T04:45:24;4.75;;;4.35;;
18336;SDS011;9294;51.106;7.028;2022-10-31T04:47:51;5.10;;;4.70;;
18336;SDS011;9294;51.106;7.028;2022-10-31T04:50:18;3.90;;;3.60;;
18336;SDS011;9294;51.106;7.028;2022-10-31T04:52:46;4.32;;;4.13;;
18336;SDS011;9294;51.106;7.028;2022-10-31T04:55:13;4.57;;;4.18;;
18336;SDS011;9294;51.106;7.028;2022-10-31T04:57:40;4.55;;;4.22;;
18336;SDS011;9294;51.106;7.028;2022-10-31T05:00:08;4.57;;;4.38;;
18336;SDS011;9294;51.106;7.028;2022-10-31T05:02:43;4.22;;;4.00;;
18336;SDS011;9294;51.106;7.028;2022-10-31T05:05:10;4.53;;;4.22;;
18336;SDS011;9294;51.106;7.028;2022-10-31T05:07:40;4.47;;;4.18;;
18336;SDS011;9294;51.106;7.028;2022-10-31T05:10:07;4.88;;;4.57;;
18336;SDS011;9294;51.106;7.028;2022-10-31T05:12:35;4.65;;;4.35;;
18336;SDS011;9294;51.106;7.028;2022-10-31T05:15:03;5.15;;;4.72;;
18336;SDS011;9294;51.106;7.028;2022-10-31T05:17:30;3.97;;;3.75;;
18336;SDS011;9294;51.106;7.028;2022-10-31T05:19:59;5.20;;;4.80;;
18336;SDS011;9294;51.106;7.028;2022-10-31T05:22:26;4.20;;;3.90;;
18336;SDS011;9294;51.106;7.028;2022-10-31T05:24:53;4.13;;;3.72;;
18336;SDS011;9294;51.106;7.028;2022-10-31T05:27:20;4.45;;;4.18;;
18336;SDS011;9294;51.106;7.028;2022-10-31T05:29:47;4.65;;;4.35;;
18336;SDS011;9294;51.106;7.028;2022-10-31T05:32:14;4.75;;;4.38;;
18336;SDS011;9294;51.106;7.028;2022-10-31T05:34:41;4.60;;;4.30;;
18336;SDS011;9294;51.106;7.028;2022-10-31T05:37:10;4.10;;;3.90;;
18336;SDS011;9294;51.106;7.028;2022-10-31T05:39:37;4.80;;;4.50;;
18336;SDS011;9294;51.106;7.028;2022-10-31T05:42:04;5.15;;;4.43;;
18336;SDS011;9294;51.106;7.028;2022-10-31T05:44:31;4.53;;;4.22;;
18336;SDS011;9294;51.106;7.028;2022-10-31T05:46:58;4.25;;;4.05;;
18336;SDS011;9294;51.106;7.028;2022-10-31T05:49:25;5.10;;;4.70;;
18336;SDS011;9294;51.106;7.028;2022-10-31T05:51:52;4.80;;;4.50;;
18336;SDS011;9294;51.106;7.028;2022-10-31T05:54:20;4.65;;;4.35;;
18336;SDS011;9294;51.106;7.028;2022-10-31T05:56:48;4.35;;;4.07;;
18336;SDS011;9294;51.106;7.028;2022-10-31T05:59:15;4.07;;;3.88;;
18336;SDS011;9294;51.106;7.028;2022-10-31T06:01:42;4.18;;;3.95;;
18336;SDS011;9294;51.106;7.028;2022-10-31T06:04:09;4.45;;;4.13;;
18336;SDS011;9294;51.106;7.028;2022-10-31T06:06:36;4.30;;;4.00;;
18336;SDS011;9294;51.106;7.028;2022-10-31T06:09:03;4.20;;;4.00;;
18336;SDS011;9294;51.106;7.028;2022-10-31T06:11:31;4.80;;;4.43;;
18336;SDS011;9294;51.106;7.028;2022-10-31T06:13:59;4.55;;;4.25;;
18336;SDS011;9294;51.106;7.028;2022-10-31T06:16:26;4.13;;;3.92;;
18336;SDS011;9294;51.106;7.028;2022-10-31T06:18:53;4.18;;;3.88;;
18336;SDS011;9294;51.106;7.028;2022-10-31T06:21:20;4.30;;;3.90;;
18336;SDS011;9294;51.106;7.028;2022-10-31T06:23:47;4.68;;;4.30;;
18336;SDS011;9294;51.106;7.028;2022-10-31T06:26:14;4.70;;;4.30;;
18336;SDS011;9294;51.106;7.028;2022-10-31T06:28:42;4.07;;;3.88;;
18336;SDS011;9294;51.106;7.028;2022-10-31T06:31:09;4.68;;;4.38;;
18336;SDS011;9294;51.106;7.028;2022-10-31T06:33:36;4.22;;;4.03;;
18336;SDS011;9294;51.106;7.028;2022-10-31T06:36:04;4.60;;;4.30;;
18336;SDS011;9294;51.106;7.028;2022-10-31T06:38:31;4.40;;;4.10;;
18336;SDS011;9294;51.106;7.028;2022-10-31T06:41:01;12.50;;;9.27;;
18336;SDS011;9294;51.106;7.028;2022-10-31T06:43:29;15.63;;;10.80;;
18336;SDS011;9294;51.106;7.028;2022-10-31T06:45:57;14.45;;;9.75;;
18336;SDS011;9294;51.106;7.028;2022-10-31T06:48:24;31.70;;;9.85;;
18336;SDS011;9294;51.106;7.028;2022-10-31T06:50:51;20.52;;;10.43;;
18336;SDS011;9294;51.106;7.028;2022-10-31T06:53:18;19.67;;;10.25;;
18336;SDS011;9294;51.106;7.028;2022-10-31T06:55:45;17.80;;;9.82;;
18336;SDS011;9294;51.106;7.028;2022-10-31T06:58:12;15.18;;;9.75;;
18336;SDS011;9294;51.106;7.028;2022-10-31T07:00:39;13.77;;;10.75;;
18336;SDS011;9294;51.106;7.028;2022-10-31T07:03:09;15.00;;;10.60;;
18336;SDS011;9294;51.106;7.028;2022-10-31T07:05:37;15.65;;;10.88;;
18336;SDS011;9294;51.106;7.028;2022-10-31T07:08:05;15.13;;;10.05;;
18336;SDS011;9294;51.106;7.028;2022-10-31T07:10:33;14.15;;;10.07;;
18336;SDS011;9294;51.106;7.028;2022-10-31T07:13:02;10.32;;;8.15;;
18336;SDS011;9294;51.106;7.028;2022-10-31T07:15:30;9.32;;;6.63;;
18336;SDS011;9294;51.106;7.028;2022-10-31T07:17:59;14.68;;;7.90;;
18336;SDS011;9294;51.106;7.028;2022-10-31T07:20:28;10.57;;;7.22;;
18336;SDS011;9294;51.106;7.028;2022-10-31T07:22:55;11.55;;;7.93;;
18336;SDS011;9294;51.106;7.028;2022-10-31T07:25:22;9.85;;;7.00;;
18336;SDS011;9294;51.106;7.028;2022-10-31T07:27:50;8.63;;;6.80;;
18336;SDS011;9294;51.106;7.028;2022-10-31T07:30:17;9.63;;;6.82;;
18336;SDS011;9294;51.106;7.028;2022-10-31T07:32:44;7.07;;;6.35;;
18336;SDS011;9294;51.106;7.028;2022-10-31T07:35:12;7.55;;;6.65;;
18336;SDS011;9294;51.106;7.028;2022-10-31T07:37:41;9.15;;;6.95;;
18336;SDS011;9294;51.106;7.028;2022-10-31T07:40:08;7.30;;;6.70;;
18336;SDS011;9294;51.106;7.028;2022-10-31T07:42:36;6.53;;;5.85;;
18336;SDS011;9294;51.106;7.028;2022-10-31T07:45:03;9.23;;;6.40;;
18336;SDS011;9294;51.106;7.028;2022-10-31T07:47:37;8.00;;;5.95;;
18336;SDS011;9294;51.106;7.028;2022-10-31T07:50:04;7.38;;;6.57;;
18336;SDS011;9294;51.106;7.028;2022-10-31T07:52:31;6.10;;;5.35;;
18336;SDS011;9294;51.106;7.028;2022-10-31T07:55:00;8.82;;;5.68;;
18336;SDS011;9294;51.106;7.028;2022-10-31T07:57:27;8.82;;;5.93;;
18336;SDS011;9294;51.106;7.028;2022-10-31T07:59:54;9.80;;;6.18;;
18336;SDS011;9294;51.106;7.028;2022-10-31T08:02:21;7.68;;;5.60;;
18336;SDS011;9294;51.106;7.028;2022-10-31T08:04:49;6.57;;;5.25;;
18336;SDS011;9294;51.106;7.028;2022-10-31T08:07:17;7.82;;;5.72;;
18336;SDS011;9294;51.106;7.028;2022-10-31T08:09:44;5.65;;;5.15;;
18336;SDS011;9294;51.106;7.028;2022-10-31T08:12:12;8.93;;;5.53;;
18336;SDS011;9294;51.106;7.028;2022-10-31T08:14:39;7.68;;;5.60;;
18336;SDS011;9294;51.106;7.028;2022-10-31T08:17:07;6.57;;;5.80;;
18336;SDS011;9294;51.106;7.028;2022-10-31T08:19:34;8.80;;;6.07;;
18336;SDS011;9294;51.106;7.028;2022-10-31T08:22:01;6.97;;;5.65;;
18336;SDS011;9294;51.106;7.028;2022-10-31T08:24:28;5.35;;;4.85;;
18336;SDS011;9294;51.106;7.028;2022-10-31T08:26:55;7.53;;;5.60;;
18336;SDS011;9294;51.106;7.028;2022-10-31T08:29:23;6.35;;;5.40;;
18336;SDS011;9294;51.106;7.028;2022-10-31T08:31:50;7.15;;;5.53;;
18336;SDS011;9294;51.106;7.028;2022-10-31T08:34:17;6.80;;;5.90;;
18336;SDS011;9294;51.106;7.028;2022-10-31T08:36:44;6.47;;;5.72;;
18336;SDS011;9294;51.106;7.028;2022-10-31T08:39:11;7.53;;;5.65;;
18336;SDS011;9294;51.106;7.028;2022-10-31T08:41:39;6.97;;;5.63;;
18336;SDS011;9294;51.106;7.028;2022-10-31T08:44:06;10.23;;;5.90;;
18336;SDS011;9294;51.106;7.028;2022-10-31T08:46:34;7.13;;;5.45;;
18336;SDS011;9294;51.106;7.028;2022-10-31T08:49:01;6.07;;;5.57;;
18336;SDS011;9294;51.106;7.028;2022-10-31T08:51:28;5.82;;;5.30;;
18336;SDS011;9294;51.106;7.028;2022-10-31T08:53:55;10.55;;;5.85;;
18336;SDS011;9294;51.106;7.028;2022-10-31T08:56:22;5.82;;;5.20;;
18336;SDS011;9294;51.106;7.028;2022-10-31T08:58:49;6.60;;;5.80;;
18336;SDS011;9294;51.106;7.028;2022-10-31T09:01:17;9.57;;;5.65;;
18336;SDS011;9294;51.106;7.028;2022-10-31T09:03:45;7.03;;;6.22;;
18336;SDS011;9294;51.106;7.028;2022-10-31T09:06:12;12.23;;;6.38;;
18336;SDS011;9294;51.106;7.028;2022-10-31T09:08:39;10.13;;;5.07;;
18336;SDS011;9294;51.106;7.028;2022-10-31T09:11:06;6.20;;;5.70;;
18336;SDS011;9294;51.106;7.028;2022-10-31T09:13:33;10.68;;;5.75;;
18336;SDS011;9294;51.106;7.028;2022-10-31T09:16:01;7.80;;;5.55;;
18336;SDS011;9294;51.106;7.028;2022-10-31T09:18:28;5.55;;;4.97;;
18336;SDS011;9294;51.106;7.028;2022-10-31T09:20:58;5.85;;;5.07;;
18336;SDS011;9294;51.106;7.028;2022-10-31T09:23:25;7.10;;;4.93;;
18336;SDS011;9294;51.106;7.028;2022-10-31T09:25:52;7.22;;;4.90;;
18336;SDS011;9294;51.106;7.028;2022-10-31T09:28:20;5.38;;;4.88;;
18336;SDS011;9294;51.106;7.028;2022-10-31T09:30:48;7.97;;;5.13;;
18336;SDS011;9294;51.106;7.028;2022-10-31T09:33:15;7.18;;;5.20;;
18336;SDS011;9294;51.106;7.028;2022-10-31T09:35:43;6.22;;;4.82;;
18336;SDS011;9294;51.106;7.028;2022-10-31T09:38:12;5.68;;;5.15;;
18336;SDS011;9294;51.106;7.028;2022-10-31T09:40:40;10.52;;;5.28;;
18336;SDS011;9294;51.106;7.028;2022-10-31T09:43:13;9.05;;;5.32;;
18336;SDS011;9294;51.106;7.028;2022-10-31T09:45:44;12.20;;;5.25;;
18336;SDS011;9294;51.106;7.028;2022-10-31T09:48:20;11.73;;;5.97;;
18336;SDS011;9294;51.106;7.028;2022-10-31T09:50:50;12.43;;;5.35;;
18336;SDS011;9294;51.106;7.028;2022-10-31T09:53:22;11.80;;;5.53;;
18336;SDS011;9294;51.106;7.028;2022-10-31T09:55:50;14.10;;;5.53;;
18336;SDS011;9294;51.106;7.028;2022-10-31T09:58:18;7.65;;;5.07;;
18336;SDS011;9294;51.106;7.028;2022-10-31T10:00:45;7.28;;;5.43;;
18336;SDS011;9294;51.106;7.028;2022-10-31T10:03:15;8.82;;;4.97;;
18336;SDS011;9294;51.106;7.028;2022-10-31T10:05:49;10.93;;;5.20;;
18336;SDS011;9294;51.106;7.028;2022-10-31T10:08:18;7.00;;;5.15;;
18336;SDS011;9294;51.106;7.028;2022-10-31T10:10:49;10.23;;;5.55;;
18336;SDS011;9294;51.106;7.028;2022-10-31T10:13:31;9.40;;;5.55;;
18336;SDS011;9294;51.106;7.028;2022-10-31T10:16:12;9.73;;;5.53;;
18336;SDS011;9294;51.106;7.028;2022-10-31T10:18:43;6.97;;;5.50;;
18336;SDS011;9294;51.106;7.028;2022-10-31T10:21:18;9.48;;;6.38;;
18336;SDS011;9294;51.106;7.028;2022-10-31T10:23:56;7.75;;;5.38;;
18336;SDS011;9294;51.106;7.028;2022-10-31T10:26:28;7.68;;;5.53;;
18336;SDS011;9294;51.106;7.028;2022-10-31T10:28:57;10.07;;;5.20;;
18336;SDS011;9294;51.106;7.028;2022-10-31T10:31:26;9.05;;;5.80;;
18336;SDS011;9294;51.106;7.028;2022-10-31T10:33:56;8.25;;;5.90;;
18336;SDS011;9294;51.106;7.028;2022-10-31T10:36:26;7.10;;;6.15;;
18336;SDS011;9294;51.106;7.028;2022-10-31T10:38:55;6.18;;;4.93;;
18336;SDS011;9294;51.106;7.028;2022-10-31T10:41:27;11.20;;;6.30;;
18336;SDS011;9294;51.106;7.028;2022-10-31T10:43:56;7.05;;;5.50;;
18336;SDS011;9294;51.106;7.028;2022-10-31T10:46:24;8.20;;;5.53;;
18336;SDS011;9294;51.106;7.028;2022-10-31T10:49:13;9.43;;;5.60;;
18336;SDS011;9294;51.106;7.028;2022-10-31T10:51:43;7.57;;;5.57;;
18336;SDS011;9294;51.106;7.028;2022-10-31T10:56:58;7.07;;;5.68;;
18336;SDS011;9294;51.106;7.028;2022-10-31T10:59:27;8.63;;;5.60;;
18336;SDS011;9294;51.106;7.028;2022-10-31T11:01:55;7.75;;;5.82;;
18336;SDS011;9294;51.106;7.028;2022-10-31T11:04:29;5.75;;;5.22;;
18336;SDS011;9294;51.106;7.028;2022-10-31T11:07:00;7.50;;;4.70;;
18336;SDS011;9294;51.106;7.028;2022-10-31T11:09:28;6.05;;;5.35;;
18336;SDS011;9294;51.106;7.028;2022-10-31T11:11:56;6.43;;;5.80;;
18336;SDS011;9294;51.106;7.028;2022-10-31T11:14:24;10.68;;;5.57;;
18336;SDS011;9294;51.106;7.028;2022-10-31T11:16:53;6.82;;;4.97;;
18336;SDS011;9294;51.106;7.028;2022-10-31T11:19:23;8.10;;;5.40;;
18336;SDS011;9294;51.106;7.028;2022-10-31T11:21:51;6.07;;;5.22;;
18336;SDS011;9294;51.106;7.028;2022-10-31T11:24:19;7.82;;;4.88;;
18336;SDS011;9294;51.106;7.028;2022-10-31T11:26:47;6.15;;;5.55;;
18336;SDS011;9294;51.106;7.028;2022-10-31T11:29:17;6.30;;;5.50;;
18336;SDS011;9294;51.106;7.028;2022-10-31T11:31:46;8.10;;;5.80;;
18336;SDS011;9294;51.106;7.028;2022-10-31T11:34:16;7.13;;;5.30;;
18336;SDS011;9294;51.106;7.028;2022-10-31T11:36:44;5.85;;;5.35;;
18336;SDS011;9294;51.106;7.028;2022-10-31T11:39:14;8.52;;;5.53;;
18336;SDS011;9294;51.106;7.028;2022-10-31T11:41:42;5.95;;;5.35;;
18336;SDS011;9294;51.106;7.028;2022-10-31T11:44:11;9.73;;;5.80;;
18336;SDS011;9294;51.106;7.028;2022-10-31T11:46:41;6.93;;;5.35;;
18336;SDS011;9294;51.106;7.028;2022-10-31T11:49:12;6.22;;;5.30;;
18336;SDS011;9294;51.106;7.028;2022-10-31T11:51:40;5.50;;;5.00;;
18336;SDS011;9294;51.106;7.028;2022-10-31T11:54:15;6.22;;;5.30;;
18336;SDS011;9294;51.106;7.028;2022-10-31T11:56:45;7.80;;;5.97;;
18336;SDS011;9294;51.106;7.028;2022-10-31T11:59:15;10.88;;;5.43;;
18336;SDS011;9294;51.106;7.028;2022-10-31T12:01:47;16.35;;;5.85;;
18336;SDS011;9294;51.106;7.028;2022-10-31T12:04:15;17.17;;;5.93;;
18336;SDS011;9294;51.106;7.028;2022-10-31T12:06:43;8.43;;;5.10;;
18336;SDS011;9294;51.106;7.028;2022-10-31T12:09:17;6.50;;;5.40;;
18336;SDS011;9294;51.106;7.028;2022-10-31T12:11:47;14.73;;;6.50;;
18336;SDS011;9294;51.106;7.028;2022-10-31T12:14:22;19.58;;;5.95;;
18336;SDS011;9294;51.106;7.028;2022-10-31T12:16:53;11.30;;;5.68;;
18336;SDS011;9294;51.106;7.028;2022-10-31T12:19:25;12.00;;;6.28;;
18336;SDS011;9294;51.106;7.028;2022-10-31T12:21:58;9.45;;;5.40;;
18336;SDS011;9294;51.106;7.028;2022-10-31T12:24:29;12.93;;;5.10;;
18336;SDS011;9294;51.106;7.028;2022-10-31T12:27:03;10.73;;;5.40;;
18336;SDS011;9294;51.106;7.028;2022-10-31T12:29:34;11.25;;;5.60;;
18336;SDS011;9294;51.106;7.028;2022-10-31T12:32:13;11.55;;;5.25;;
18336;SDS011;9294;51.106;7.028;2022-10-31T12:34:48;11.18;;;5.85;;
18336;SDS011;9294;51.106;7.028;2022-10-31T12:37:20;7.43;;;5.50;;
18336;SDS011;9294;51.106;7.028;2022-10-31T12:39:51;6.30;;;4.85;;
18336;SDS011;9294;51.106;7.028;2022-10-31T12:42:22;7.88;;;5.35;;
18336;SDS011;9294;51.106;7.028;2022-10-31T12:44:57;6.90;;;5.43;;
18336;SDS011;9294;51.106;7.028;2022-10-31T12:47:31;6.70;;;4.88;;
18336;SDS011;9294;51.106;7.028;2022-10-31T12:50:08;7.93;;;5.40;;
18336;SDS011;9294;51.106;7.028;2022-10-31T12:52:43;8.15;;;5.05;;
18336;SDS011;9294;51.106;7.028;2022-10-31T12:55:16;6.18;;;4.85;;
18336;SDS011;9294;51.106;7.028;2022-10-31T12:57:46;6.10;;;5.20;;
18336;SDS011;9294;51.106;7.028;2022-10-31T13:00:14;9.27;;;4.90;;
18336;SDS011;9294;51.106;7.028;2022-10-31T13:02:46;14.50;;;5.68;;
18336;SDS011;9294;51.106;7.028;2022-10-31T13:05:14;8.45;;;5.68;;
18336;SDS011;9294;51.106;7.028;2022-10-31T13:07:46;6.25;;;5.10;;
18336;SDS011;9294;51.106;7.028;2022-10-31T13:10:16;7.78;;;5.35;;
18336;SDS011;9294;51.106;7.028;2022-10-31T13:12:45;6.45;;;5.43;;
18336;SDS011;9294;51.106;7.028;2022-10-31T13:15:16;6.80;;;5.22;;
18336;SDS011;9294;51.106;7.028;2022-10-31T13:17:46;6.15;;;5.40;;
18336;SDS011;9294;51.106;7.028;2022-10-31T13:20:20;11.43;;;5.57;;
18336;SDS011;9294;51.106;7.028;2022-10-31T13:22:49;7.10;;;4.30;;
18336;SDS011;9294;51.106;7.028;2022-10-31T13:25:19;7.05;;;4.68;;
18336;SDS011;9294;51.106;7.028;2022-10-31T13:27:48;4.95;;;4.50;;
18336;SDS011;9294;51.106;7.028;2022-10-31T13:30:18;5.38;;;4.63;;
18336;SDS011;9294;51.106;7.028;2022-10-31T13:32:50;6.18;;;5.50;;
18336;SDS011;9294;51.106;7.028;2022-10-31T13:35:21;5.72;;;5.15;;
18336;SDS011;9294;51.106;7.028;2022-10-31T13:37:51;6.40;;;4.88;;
18336;SDS011;9294;51.106;7.028;2022-10-31T13:40:24;5.50;;;5.00;;
18336;SDS011;9294;51.106;7.028;2022-10-31T13:42:55;4.82;;;4.43;;
18336;SDS011;9294;51.106;7.028;2022-10-31T13:45:24;5.70;;;5.15;;
18336;SDS011;9294;51.106;7.028;2022-10-31T13:47:57;5.25;;;4.75;;
18336;SDS011;9294;51.106;7.028;2022-10-31T13:50:25;7.10;;;4.65;;
18336;SDS011;9294;51.106;7.028;2022-10-31T13:53:02;6.50;;;3.90;;
18336;SDS011;9294;51.106;7.028;2022-10-31T13:55:37;5.47;;;4.03;;
18336;SDS011;9294;51.106;7.028;2022-10-31T13:58:04;4.95;;;4.53;;
18336;SDS011;9294;51.106;7.028;2022-10-31T14:00:31;7.07;;;5.05;;
18336;SDS011;9294;51.106;7.028;2022-10-31T14:03:01;6.50;;;4.65;;
18336;SDS011;9294;51.106;7.028;2022-10-31T14:05:29;5.30;;;4.72;;
18336;SDS011;9294;51.106;7.028;2022-10-31T14:07:58;4.88;;;4.45;;
18336;SDS011;9294;51.106;7.028;2022-10-31T14:10:26;7.72;;;5.35;;
18336;SDS011;9294;51.106;7.028;2022-10-31T14:12:54;9.10;;;4.75;;
18336;SDS011;9294;51.106;7.028;2022-10-31T14:15:29;4.72;;;4.28;;
18336;SDS011;9294;51.106;7.028;2022-10-31T14:17:57;4.88;;;4.45;;
18336;SDS011;9294;51.106;7.028;2022-10-31T14:20:31;5.18;;;4.45;;
18336;SDS011;9294;51.106;7.028;2022-10-31T14:23:09;5.93;;;5.32;;
18336;SDS011;9294;51.106;7.028;2022-10-31T14:25:36;5.40;;;4.90;;
18336;SDS011;9294;51.106;7.028;2022-10-31T14:28:17;5.53;;;4.72;;
18336;SDS011;9294;51.106;7.028;2022-10-31T14:30:50;6.38;;;4.32;;
18336;SDS011;9294;51.106;7.028;2022-10-31T14:33:18;7.43;;;4.00;;
18336;SDS011;9294;51.106;7.028;2022-10-31T14:35:49;7.35;;;4.57;;
18336;SDS011;9294;51.106;7.028;2022-10-31T14:38:24;10.98;;;4.88;;
18336;SDS011;9294;51.106;7.028;2022-10-31T14:41:00;6.93;;;4.60;;
18336;SDS011;9294;51.106;7.028;2022-10-31T14:43:34;8.95;;;4.70;;
18336;SDS011;9294;51.106;7.028;2022-10-31T14:46:05;11.32;;;4.45;;
18336;SDS011;9294;51.106;7.028;2022-10-31T14:48:43;5.13;;;4.20;;
18336;SDS011;9294;51.106;7.028;2022-10-31T14:51:16;6.45;;;4.65;;
18336;SDS011;9294;51.106;7.028;2022-10-31T14:53:45;5.30;;;4.00;;
18336;SDS011;9294;51.106;7.028;2022-10-31T14:56:14;6.97;;;4.22;;
18336;SDS011;9294;51.106;7.028;2022-10-31T14:58:45;10.05;;;5.07;;
18336;SDS011;9294;51.106;7.028;2022-10-31T15:01:15;6.43;;;4.60;;
18336;SDS011;9294;51.106;7.028;2022-10-31T15:03:45;5.07;;;4.60;;
18336;SDS011;9294;51.106;7.028;2022-10-31T15:06:13;7.03;;;4.30;;
18336;SDS011;9294;51.106;7.028;2022-10-31T15:08:45;4.63;;;4.22;;
18336;SDS011;9294;51.106;7.028;2022-10-31T15:11:14;5.05;;;4.43;;
18336;SDS011;9294;51.106;7.028;2022-10-31T15:13:42;5.40;;;4.50;;
18336;SDS011;9294;51.106;7.028;2022-10-31T15:16:09;6.53;;;4.38;;